createdAt,value
2022-11-22T06:31:25.759Z,-2.42
2022-11-22T06:36:47.110Z,-2.38
2022-11-22T06:42:07.999Z,-2.37
2022-11-22T06:47:28.766Z,-2.37
2022-11-22T06:52:53.388Z,-1.90
2022-11-22T06:58:14.589Z,-2.05
2022-11-22T07:03:36.741Z,-2.17
2022-11-22T07:08:59.359Z,-2.23
2022-11-22T07:14:20.480Z,-2.26
2022-11-22T07:19:41.325Z,-2.24
2022-11-22T07:25:02.274Z,-2.21
2022-11-22T07:30:23.016Z,-2.19
2022-11-22T07:35:43.868Z,-2.19
2022-11-22T07:41:05.714Z,-2.17
2022-11-22T07:46:31.306Z,-2.14
2022-11-22T07:51:53.572Z,-2.12
2022-11-22T07:57:14.203Z,-2.08
2022-11-22T08:02:37.412Z,-2.04
2022-11-22T08:07:58.576Z,-2.00
2022-11-22T08:13:19.279Z,-1.55
2022-11-22T08:18:41.312Z,-1.59
2022-11-22T08:24:02.239Z,-1.66
2022-11-22T08:29:23.151Z,-1.72
2022-11-22T08:34:47.138Z,-1.72
2022-11-22T08:40:09.318Z,-1.73
2022-11-22T08:45:30.251Z,-1.72
2022-11-22T08:50:53.052Z,-1.71
2022-11-22T08:56:15.765Z,-1.70
2022-11-22T09:01:37.174Z,-1.69
2022-11-22T09:12:44.595Z,-1.71
2022-11-22T09:18:05.731Z,-1.67
2022-11-22T09:23:26.612Z,-1.69
2022-11-22T09:28:47.763Z,-1.64
2022-11-22T09:34:08.574Z,-1.62
2022-11-22T09:39:29.813Z,-1.58
2022-11-22T09:45:10.787Z,-1.54
2022-11-22T09:50:40.539Z,-1.53
2022-11-22T09:56:07.787Z,-1.48
2022-11-22T10:01:34.936Z,-1.38
2022-11-22T10:07:00.476Z,-1.26
2022-11-22T10:12:52.856Z,-1.20
2022-11-22T10:18:16.784Z,-1.16
2022-11-22T10:23:37.887Z,-1.09
2022-11-22T10:29:04.862Z,-1.11
2022-11-22T10:34:55.651Z,-1.05
2022-11-22T10:40:28.233Z,-1.04
2022-11-22T10:46:01.041Z,-1.01
2022-11-22T10:51:40.469Z,-0.99
2022-11-22T10:57:25.963Z,-0.96
2022-11-22T11:02:47.022Z,-0.90
2022-11-22T11:08:39.192Z,-0.85
2022-11-22T11:14:05.726Z,-0.82
2022-11-22T11:19:30.643Z,-0.77
2022-11-22T11:24:52.573Z,-0.74
2022-11-22T11:30:13.807Z,-0.72
2022-11-22T11:35:34.846Z,-0.70
2022-11-22T11:40:55.601Z,-0.66
2022-11-22T11:46:28.364Z,-0.61
2022-11-22T11:52:18.975Z,-0.46
2022-11-22T11:58:21.597Z,-0.22
2022-11-22T12:03:42.579Z,-0.31
2022-11-22T12:09:26.668Z,-0.32
2022-11-22T12:15:10.786Z,-0.33
2022-11-22T12:20:59.781Z,-0.32
2022-11-22T12:26:21.205Z,0.08
2022-11-22T12:32:15.142Z,-0.01
2022-11-22T12:37:42.229Z,-0.09
2022-11-22T12:43:11.486Z,-0.13
2022-11-22T12:48:50.696Z,-0.13
2022-11-22T12:54:17.136Z,-0.15
2022-11-22T12:59:46.176Z,-0.11
2022-11-22T13:05:26.763Z,-0.12
2022-11-22T13:10:59.919Z,-0.11
2022-11-22T13:16:20.558Z,-0.13
2022-11-22T13:21:44.462Z,-0.12
2022-11-22T13:27:11.137Z,-0.12
2022-11-22T13:32:34.449Z,-0.09
2022-11-22T13:37:58.480Z,-0.13
2022-11-22T13:43:22.579Z,-0.15
2022-11-22T13:48:43.884Z,-0.13
2022-11-22T13:54:46.411Z,-0.15
2022-11-22T14:00:16.676Z,-0.19
2022-11-22T14:05:42.067Z,-0.18
2022-11-22T14:11:08.888Z,-0.21
2022-11-22T14:16:40.019Z,-0.21
2022-11-22T14:22:19.275Z,-0.21
2022-11-22T14:27:43.123Z,-0.23
2022-11-22T14:33:06.501Z,-0.25
2022-11-22T14:38:32.046Z,-0.26
2022-11-22T14:43:54.901Z,-0.26
2022-11-22T14:49:30.205Z,-0.27
2022-11-22T14:54:59.321Z,-0.28
2022-11-22T15:00:22.799Z,-0.28
2022-11-22T15:09:10.677Z,-0.29
2022-11-22T15:12:59.907Z,-0.29
2022-11-22T15:58:56.840Z,-0.23
2022-11-22T16:04:31.878Z,-0.22
2022-11-22T16:09:52.603Z,-0.22
2022-11-22T16:15:25.507Z,-0.20
2022-11-22T16:21:15.556Z,-0.20
2022-11-22T16:26:36.543Z,-0.20
2022-11-22T16:32:02.708Z,-0.18
2022-11-22T16:37:37.487Z,-0.17
2022-11-22T16:43:08.263Z,-0.17
2022-11-22T16:48:32.628Z,-0.14
2022-11-22T16:53:54.747Z,-0.12
2022-11-22T16:59:15.974Z,-0.12
2022-11-22T17:04:40.858Z,-0.12
2022-11-22T17:10:03.083Z,-0.11
2022-11-22T17:15:25.868Z,-0.10
2022-11-22T17:20:48.053Z,-0.10
2022-11-22T17:26:10.738Z,-0.09
2022-11-22T17:31:31.672Z,-0.07
2022-11-22T17:36:52.412Z,-0.04
2022-11-22T17:42:15.251Z,-0.03
2022-11-22T17:47:36.067Z,-0.01
2022-11-22T17:52:56.940Z,0.01
2022-11-22T17:58:17.835Z,0.00
2022-11-22T18:03:39.886Z,0.01
2022-11-22T18:09:01.223Z,-0.01
2022-11-22T18:14:23.352Z,0.03
2022-11-22T18:19:44.472Z,0.04
2022-11-22T18:25:05.836Z,0.07
2022-11-22T18:30:26.646Z,0.09
2022-11-22T18:35:56.197Z,0.08
2022-11-22T18:41:18.128Z,0.11
2022-11-22T18:46:39.844Z,0.12
2022-11-22T18:52:00.944Z,0.14
2022-11-22T18:57:22.125Z,0.15
2022-11-22T19:02:42.885Z,0.18
2022-11-22T19:08:03.786Z,0.19
2022-11-22T19:13:24.604Z,0.21
2022-11-22T19:18:45.595Z,0.23
2022-11-22T19:24:06.532Z,0.22
2022-11-22T19:29:27.592Z,0.22
2022-11-22T19:34:48.311Z,0.23
2022-11-22T19:40:11.106Z,0.23
2022-11-22T19:45:32.127Z,0.25
2022-11-22T19:50:53.104Z,0.29
2022-11-22T19:56:17.441Z,0.32
2022-11-22T20:01:39.785Z,0.33
2022-11-22T20:07:00.794Z,0.34
2022-11-22T20:12:21.709Z,0.37
2022-11-22T20:17:42.442Z,0.38
2022-11-22T20:23:03.259Z,0.38
2022-11-22T20:28:24.142Z,0.42
2022-11-22T20:33:47.885Z,0.43
2022-11-22T20:39:10.633Z,0.44
2022-11-22T20:44:33.976Z,0.45
2022-11-22T20:49:54.811Z,0.46
2022-11-22T20:55:16.127Z,0.46
2022-11-22T21:00:38.456Z,0.46
2022-11-22T21:06:00.968Z,0.49
2022-11-22T21:11:24.518Z,0.52
2022-11-22T21:16:45.526Z,0.53
2022-11-22T21:22:06.832Z,0.55
2022-11-22T21:27:27.696Z,0.58
2022-11-22T21:32:48.661Z,0.58
2022-11-22T21:38:09.728Z,0.58
2022-11-22T21:43:31.211Z,0.61
2022-11-22T21:48:52.413Z,0.64
2022-11-22T21:54:13.592Z,0.65
2022-11-22T21:59:34.508Z,0.64
2022-11-22T22:04:55.307Z,0.64
2022-11-22T22:10:16.144Z,0.65
2022-11-22T22:15:39.202Z,0.68
2022-11-22T22:21:05.311Z,0.71
2022-11-22T22:26:26.507Z,0.71
2022-11-22T22:31:47.607Z,0.72
2022-11-22T22:37:08.308Z,0.74
2022-11-22T22:42:29.269Z,0.74
